Atlas — SV6729 — position and weather

sailwx.info

Track history (hours):
 
Tides and Currents Weather Stations Pressure Air Temp Water Temp Dewpoint Dewpoint Depression Visibility Wind Speed Wind Dir Waves Ship Positions

Atlas

Last reported at 2016-Jul-31 08:31 UTC. Time now 2016-Jul-31 09:32 UTC.
Position N 37°57' E 023°37'.

Length 29 m; draft 5 m.

Type: Tug. MMSI: 239611000.

Date/timePositionNaut miles runAvg speedWind from/ knotsBaromVisibWave heightAir tempDewpointWater temp
2016-Jul-31 08:31N 37°57' E 023°37'1 0.8
2016-Jul-31 07:33N 37°57' E 023°36'2 1.8
2016-Jul-31 06:31N 37°58' E 023°33'0 0.0
2016-Jul-31 05:33N 37°58' E 023°33'2 2.4
2016-Jul-31 04:31N 37°58' E 023°37'0 0.2
2016-Jul-31 03:33N 37°57' E 023°37'1 0.0
2016-Jul-29 20:33N 37°57' E 023°35'0 0.2
2016-Jul-29 19:32N 37°57' E 023°35'0 0.1
2016-Jul-29 18:28N 37°57' E 023°35'0 0.4
2016-Jul-29 17:33N 37°57' E 023°36'1 0.7
2016-Jul-29 16:33N 37°57' E 023°35'1 1.1
2016-Jul-29 15:33N 37°57' E 023°36'3 2.8
2016-Jul-29 14:34N 37°58' E 023°33'4 4.3
2016-Jul-29 13:32N 38°02' E 023°30'5 5.5
2016-Jul-29 12:34N 37°57' E 023°34'2 2.3
2016-Jul-29 11:32N 37°57' E 023°37'0 0.0
2016-Jul-29 01:31N 37°57' E 023°37'0 0.0
2016-Jul-29 00:33N 37°57' E 023°37'0 0.0
2016-Jul-28 23:32N 37°57' E 023°37'1 1.1
2016-Jul-28 22:33N 37°57' E 023°35'0 0.1
2016-Jul-28 21:33N 37°57' E 023°35'1 0.6
2016-Jul-28 20:31N 37°57' E 023°36'0 0.5
2016-Jul-28 19:32N 37°57' E 023°37'0 0.0
2016-Jul-28 18:31N 37°57' E 023°37'1 0.8
2016-Jul-28 17:33N 37°57' E 023°36'2 1.7
2016-Jul-28 16:32N 37°58' E 023°34'0 0.4
2016-Jul-28 15:34N 37°57' E 023°34'2 2.0
2016-Jul-28 14:28N 37°57' E 023°37'0 0.0
2016-Jul-28 13:32N 37°57' E 023°37'0 0.0
2016-Jul-28 12:30N 37°57' E 023°37'0 0.0
2016-Jul-28 11:30N 37°57' E 023°37'1 0.1
2016-Jul-27 21:33N 37°57' E 023°37'1 0.9
2016-Jul-27 20:31N 37°57' E 023°36'0 0.2
2016-Jul-27 19:28N 37°57' E 023°36'1 0.6
2016-Jul-27 18:31N 37°57' E 023°37'1 1.0
2016-Jul-27 17:32N 37°57' E 023°35'1 0.7
2016-Jul-27 16:33N 37°58' E 023°36'1 0.7
2016-Jul-27 15:32N 37°57' E 023°36'1 0.6
2016-Jul-27 14:28N 37°57' E 023°37'0 0.0
2016-Jul-27 13:31N 37°57' E 023°37'0 0.0
2016-Jul-27 12:31N 37°57' E 023°37'0 0.0
2016-Jul-27 11:29N 37°57' E 023°37'1 0.1
2016-Jul-26 21:32N 37°57' E 023°36'0 0.0
2016-Jul-26 20:31N 37°57' E 023°36'0 0.0
2016-Jul-26 19:32N 37°57' E 023°36'4 3.9
2016-Jul-26 18:33N 38°01' E 023°35'3 3.3
2016-Jul-26 17:33N 37°58' E 023°34'1 1.4
2016-Jul-26 16:33N 37°57' E 023°35'1 0.9
2016-Jul-26 15:24N 37°57' E 023°37'0 0.0
2016-Jul-26 14:31N 37°57' E 023°37'1 1.4
2016-Jul-26 13:32N 37°57' E 023°35'1 1.4
2016-Jul-26 12:33N 37°57' E 023°37'0 0.0
2016-Jul-26 11:31N 37°57' E 023°37'1 0.0
2016-Jul-25 18:33N 37°57' E 023°36'0 0.2
2016-Jul-25 17:32N 37°57' E 023°36'0 0.4
2016-Jul-25 16:33N 37°57' E 023°36'4 3.8
2016-Jul-25 15:34N 37°60' E 023°33'2 1.7
2016-Jul-25 14:34N 38°01' E 023°31'1 0.9
2016-Jul-25 13:31N 38°02' E 023°32'5 5.2
2016-Jul-25 12:33N 37°57' E 023°35'1 0.7
2016-Jul-25 11:28N 37°58' E 023°36'0 0.0
2016-Jul-23 20:33N 37°57' E 023°37'0 0.2
2016-Jul-23 19:33N 37°58' E 023°36'2 1.8
2016-Jul-23 18:32N 37°56' E 023°38'2 1.6
2016-Jul-23 17:31N 37°57' E 023°37'0 0.0
2016-Jul-23 16:32N 37°57' E 023°37'0 0.0
2016-Jul-23 15:29N 37°57' E 023°37'0 0.0
2016-Jul-23 14:32N 37°57' E 023°37'0 0.0
2016-Jul-23 13:31N 37°57' E 023°37'4 4.4
2016-Jul-23 12:33N 38°00' E 023°33'2 1.6
2016-Jul-23 11:34N 38°01' E 023°31'1 1.3
2016-Jul-23 10:33N 38°02' E 023°32'0 0.0
2016-Jul-23 08:32N 38°02' E 023°32'1 0.6
2016-Jul-23 07:34N 38°02' E 023°33'4 4.3
2016-Jul-23 06:32N 37°57' E 023°35'1 0.4
2016-Jul-23 04:34N 37°57' E 023°36'1 0.8
2016-Jul-23 03:30N 37°57' E 023°37'0 0.0
2016-Jul-22 18:13N 37°57' E 023°37'1 0.9
2016-Jul-22 17:34N 37°57' E 023°37'1 0.5
2016-Jul-22 16:27N 37°57' E 023°37'0 0.0
2016-Jul-22 15:32N 37°57' E 023°37'7 6.2
2016-Jul-22 14:28N 38°02' E 023°31'5 5.0
2016-Jul-22 13:32N 37°58' E 023°33'3 2.8
2016-Jul-22 12:33N 37°57' E 023°37'0 0.0
2016-Jul-22 11:33N 37°57' E 023°37'0 0.0
2016-Jul-22 10:33N 37°57' E 023°37'0 0.0
2016-Jul-22 09:30N 37°57' E 023°37'0 0.0
2016-Jul-22 08:28N 37°57' E 023°37'0 0.0
2016-Jul-22 07:33N 37°57' E 023°37'1 0.2
2016-Jul-22 04:33N 37°57' E 023°36'1 0.6
2016-Jul-22 03:33N 37°57' E 023°37'1 0.1
2016-Jul-21 10:33N 37°57' E 023°36'6 5.9
2016-Jul-21 09:29N 38°02' E 023°31'0 0.0
2016-Jul-21 08:33N 38°02' E 023°31'  
Track history (hours):
 
Tides and Currents Weather Stations Pressure Air Temp Water Temp Dewpoint Dewpoint Depression Visibility Wind Speed Wind Dir Waves Ship Positions

Atlas

Last reported at 2016-Jul-31 08:31 UTC. Time now 2016-Jul-31 09:32 UTC.
Position N 37°57' E 023°37'.

Length 29 m; draft 5 m.

Type: Tug. MMSI: 239611000.

Date/timePositionNaut miles runAvg speedWind from/ knotsBaromVisibWave heightAir tempDewpointWater temp
2016-Jul-31 08:31N 37°57' E 023°37'1 0.8
2016-Jul-31 07:33N 37°57' E 023°36'2 1.8
2016-Jul-31 06:31N 37°58' E 023°33'0 0.0
2016-Jul-31 05:33N 37°58' E 023°33'2 2.4
2016-Jul-31 04:31N 37°58' E 023°37'0 0.2
2016-Jul-31 03:33N 37°57' E 023°37'1 0.0
2016-Jul-29 20:33N 37°57' E 023°35'0 0.2
2016-Jul-29 19:32N 37°57' E 023°35'0 0.1
2016-Jul-29 18:28N 37°57' E 023°35'0 0.4
2016-Jul-29 17:33N 37°57' E 023°36'1 0.7
2016-Jul-29 16:33N 37°57' E 023°35'1 1.1
2016-Jul-29 15:33N 37°57' E 023°36'3 2.8
2016-Jul-29 14:34N 37°58' E 023°33'4 4.3
2016-Jul-29 13:32N 38°02' E 023°30'5 5.5
2016-Jul-29 12:34N 37°57' E 023°34'2 2.3
2016-Jul-29 11:32N 37°57' E 023°37'0 0.0
2016-Jul-29 01:31N 37°57' E 023°37'0 0.0
2016-Jul-29 00:33N 37°57' E 023°37'0 0.0
2016-Jul-28 23:32N 37°57' E 023°37'1 1.1
2016-Jul-28 22:33N 37°57' E 023°35'0 0.1
2016-Jul-28 21:33N 37°57' E 023°35'1 0.6
2016-Jul-28 20:31N 37°57' E 023°36'0 0.5
2016-Jul-28 19:32N 37°57' E 023°37'0 0.0
2016-Jul-28 18:31N 37°57' E 023°37'1 0.8
2016-Jul-28 17:33N 37°57' E 023°36'2 1.7
2016-Jul-28 16:32N 37°58' E 023°34'0 0.4
2016-Jul-28 15:34N 37°57' E 023°34'2 2.0
2016-Jul-28 14:28N 37°57' E 023°37'0 0.0
2016-Jul-28 13:32N 37°57' E 023°37'0 0.0
2016-Jul-28 12:30N 37°57' E 023°37'0 0.0
2016-Jul-28 11:30N 37°57' E 023°37'1 0.1
2016-Jul-27 21:33N 37°57' E 023°37'1 0.9
2016-Jul-27 20:31N 37°57' E 023°36'0 0.2
2016-Jul-27 19:28N 37°57' E 023°36'1 0.6
2016-Jul-27 18:31N 37°57' E 023°37'1 1.0
2016-Jul-27 17:32N 37°57' E 023°35'1 0.7
2016-Jul-27 16:33N 37°58' E 023°36'1 0.7
2016-Jul-27 15:32N 37°57' E 023°36'1 0.6
2016-Jul-27 14:28N 37°57' E 023°37'0 0.0
2016-Jul-27 13:31N 37°57' E 023°37'0 0.0
2016-Jul-27 12:31N 37°57' E 023°37'0 0.0
2016-Jul-27 11:29N 37°57' E 023°37'1 0.1
2016-Jul-26 21:32N 37°57' E 023°36'0 0.0
2016-Jul-26 20:31N 37°57' E 023°36'0 0.0
2016-Jul-26 19:32N 37°57' E 023°36'4 3.9
2016-Jul-26 18:33N 38°01' E 023°35'3 3.3
2016-Jul-26 17:33N 37°58' E 023°34'1 1.4
2016-Jul-26 16:33N 37°57' E 023°35'1 0.9
2016-Jul-26 15:24N 37°57' E 023°37'0 0.0
2016-Jul-26 14:31N 37°57' E 023°37'1 1.4
2016-Jul-26 13:32N 37°57' E 023°35'1 1.4
2016-Jul-26 12:33N 37°57' E 023°37'0 0.0
2016-Jul-26 11:31N 37°57' E 023°37'1 0.0
2016-Jul-25 18:33N 37°57' E 023°36'0 0.2
2016-Jul-25 17:32N 37°57' E 023°36'0 0.4
2016-Jul-25 16:33N 37°57' E 023°36'4 3.8
2016-Jul-25 15:34N 37°60' E 023°33'2 1.7
2016-Jul-25 14:34N 38°01' E 023°31'1 0.9
2016-Jul-25 13:31N 38°02' E 023°32'5 5.2
2016-Jul-25 12:33N 37°57' E 023°35'1 0.7
2016-Jul-25 11:28N 37°58' E 023°36'0 0.0
2016-Jul-23 20:33N 37°57' E 023°37'0 0.2
2016-Jul-23 19:33N 37°58' E 023°36'2 1.8
2016-Jul-23 18:32N 37°56' E 023°38'2 1.6
2016-Jul-23 17:31N 37°57' E 023°37'0 0.0
2016-Jul-23 16:32N 37°57' E 023°37'0 0.0
2016-Jul-23 15:29N 37°57' E 023°37'0 0.0
2016-Jul-23 14:32N 37°57' E 023°37'0 0.0
2016-Jul-23 13:31N 37°57' E 023°37'4 4.4
2016-Jul-23 12:33N 38°00' E 023°33'2 1.6
2016-Jul-23 11:34N 38°01' E 023°31'1 1.3
2016-Jul-23 10:33N 38°02' E 023°32'0 0.0
2016-Jul-23 08:32N 38°02' E 023°32'1 0.6
2016-Jul-23 07:34N 38°02' E 023°33'4 4.3
2016-Jul-23 06:32N 37°57' E 023°35'1 0.4
2016-Jul-23 04:34N 37°57' E 023°36'1 0.8
2016-Jul-23 03:30N 37°57' E 023°37'0 0.0
2016-Jul-22 18:13N 37°57' E 023°37'1 0.9
2016-Jul-22 17:34N 37°57' E 023°37'1 0.5
2016-Jul-22 16:27N 37°57' E 023°37'0 0.0
2016-Jul-22 15:32N 37°57' E 023°37'7 6.2
2016-Jul-22 14:28N 38°02' E 023°31'5 5.0
2016-Jul-22 13:32N 37°58' E 023°33'3 2.8
2016-Jul-22 12:33N 37°57' E 023°37'0 0.0
2016-Jul-22 11:33N 37°57' E 023°37'0 0.0
2016-Jul-22 10:33N 37°57' E 023°37'0 0.0
2016-Jul-22 09:30N 37°57' E 023°37'0 0.0
2016-Jul-22 08:28N 37°57' E 023°37'0 0.0
2016-Jul-22 07:33N 37°57' E 023°37'1 0.2
2016-Jul-22 04:33N 37°57' E 023°36'1 0.6
2016-Jul-22 03:33N 37°57' E 023°37'1 0.1
2016-Jul-21 10:33N 37°57' E 023°36'6 5.9
2016-Jul-21 09:29N 38°02' E 023°31'0 0.0
2016-Jul-21 08:33N 38°02' E 023°31'  

Dump ship's entire track history